sensor_id;sensor_type;location;lat;lon;timestamp;pressure;altitude;pressure_sealevel;temperature;humidity
38616;BME280;24370;51.986;4.666;2023-07-24T00:00:18;100488.53;;;26.42;53.15
38616;BME280;24370;51.986;4.666;2023-07-24T00:02:44;100486.19;;;26.37;54.98
38616;BME280;24370;51.986;4.666;2023-07-24T00:05:09;100484.91;;;26.64;52.36
38616;BME280;24370;51.986;4.666;2023-07-24T00:07:35;100491.25;;;26.08;54.17
38616;BME280;24370;51.986;4.666;2023-07-24T00:10:01;100484.31;;;25.94;55.15
38616;BME280;24370;51.986;4.666;2023-07-24T00:12:26;100479.56;;;26.20;53.96
38616;BME280;24370;51.986;4.666;2023-07-24T00:14:52;100475.72;;;25.68;55.50
38616;BME280;24370;51.986;4.666;2023-07-24T00:17:18;100474.50;;;25.72;54.81
38616;BME280;24370;51.986;4.666;2023-07-24T00:19:43;100475.53;;;25.92;54.03
38616;BME280;24370;51.986;4.666;2023-07-24T00:22:09;100469.22;;;26.04;53.56
38616;BME280;24370;51.986;4.666;2023-07-24T00:24:34;100466.09;;;26.43;53.04
38616;BME280;24370;51.986;4.666;2023-07-24T00:27:00;100468.78;;;25.07;56.29
38616;BME280;24370;51.986;4.666;2023-07-24T00:29:25;100457.88;;;26.23;53.03
38616;BME280;24370;51.986;4.666;2023-07-24T00:31:51;100455.31;;;25.99;53.84
38616;BME280;24370;51.986;4.666;2023-07-24T00:34:16;100453.03;;;24.80;58.56
38616;BME280;24370;51.986;4.666;2023-07-24T00:36:42;100442.72;;;25.67;54.84
38616;BME280;24370;51.986;4.666;2023-07-24T00:39:07;100447.38;;;25.07;57.18
38616;BME280;24370;51.986;4.666;2023-07-24T00:41:32;100441.94;;;26.22;54.15
38616;BME280;24370;51.986;4.666;2023-07-24T00:43:58;100438.19;;;26.02;53.99
38616;BME280;24370;51.986;4.666;2023-07-24T00:46:24;100439.94;;;25.57;55.22
38616;BME280;24370;51.986;4.666;2023-07-24T00:48:50;100443.84;;;26.31;53.38
38616;BME280;24370;51.986;4.666;2023-07-24T00:51:16;100439.75;;;25.25;55.94
38616;BME280;24370;51.986;4.666;2023-07-24T00:53:42;100433.13;;;25.76;55.47
38616;BME280;24370;51.986;4.666;2023-07-24T00:56:08;100436.50;;;26.01;55.21
38616;BME280;24370;51.986;4.666;2023-07-24T00:58:37;100425.81;;;25.78;56.29
38616;BME280;24370;51.986;4.666;2023-07-24T01:01:03;100426.25;;;25.95;54.38
38616;BME280;24370;51.986;4.666;2023-07-24T01:03:33;100429.28;;;26.13;54.01
38616;BME280;24370;51.986;4.666;2023-07-24T01:06:01;100429.91;;;25.14;57.61
38616;BME280;24370;51.986;4.666;2023-07-24T01:08:28;100424.31;;;25.97;56.29
38616;BME280;24370;51.986;4.666;2023-07-24T01:10:56;100417.59;;;26.14;55.84
38616;BME280;24370;51.986;4.666;2023-07-24T01:13:25;100426.81;;;25.43;58.02
38616;BME280;24370;51.986;4.666;2023-07-24T01:18:27;100413.50;;;26.42;54.09
38616;BME280;24370;51.986;4.666;2023-07-24T01:20:56;100421.47;;;26.53;53.90
38616;BME280;24370;51.986;4.666;2023-07-24T01:25:58;100409.56;;;26.79;52.97
38616;BME280;24370;51.986;4.666;2023-07-24T01:28:25;100414.72;;;25.94;54.22
38616;BME280;24370;51.986;4.666;2023-07-24T01:30:51;100412.00;;;26.49;53.17
38616;BME280;24370;51.986;4.666;2023-07-24T01:33:17;100407.59;;;26.27;52.96
38616;BME280;24370;51.986;4.666;2023-07-24T01:35:43;100408.16;;;26.42;54.04
38616;BME280;24370;51.986;4.666;2023-07-24T01:38:11;100400.47;;;26.37;54.05
38616;BME280;24370;51.986;4.666;2023-07-24T01:40:40;100406.34;;;25.76;55.87
38616;BME280;24370;51.986;4.666;2023-07-24T01:43:05;100399.41;;;25.17;57.40
38616;BME280;24370;51.986;4.666;2023-07-24T01:45:31;100398.13;;;26.00;56.16
38616;BME280;24370;51.986;4.666;2023-07-24T01:47:57;100398.34;;;26.20;54.12
38616;BME280;24370;51.986;4.666;2023-07-24T01:50:23;100403.50;;;27.07;51.17
38616;BME280;24370;51.986;4.666;2023-07-24T01:52:48;100401.94;;;26.09;53.98
38616;BME280;24370;51.986;4.666;2023-07-24T01:55:13;100400.06;;;25.43;57.02
38616;BME280;24370;51.986;4.666;2023-07-24T01:57:39;100399.69;;;25.36;57.39
38616;BME280;24370;51.986;4.666;2023-07-24T02:00:05;100391.59;;;26.58;54.09
38616;BME280;24370;51.986;4.666;2023-07-24T02:02:31;100378.28;;;26.14;55.50
38616;BME280;24370;51.986;4.666;2023-07-24T02:04:56;100378.16;;;27.21;51.09
38616;BME280;24370;51.986;4.666;2023-07-24T02:07:22;100383.06;;;26.85;51.79
38616;BME280;24370;51.986;4.666;2023-07-24T02:09:47;100390.78;;;26.57;53.64
38616;BME280;24370;51.986;4.666;2023-07-24T02:12:13;100380.59;;;26.19;54.06
38616;BME280;24370;51.986;4.666;2023-07-24T02:14:38;100376.38;;;25.94;53.64
38616;BME280;24370;51.986;4.666;2023-07-24T02:17:04;100363.06;;;25.71;54.33
38616;BME280;24370;51.986;4.666;2023-07-24T02:19:29;100363.75;;;25.84;54.92
38616;BME280;24370;51.986;4.666;2023-07-24T02:21:55;100355.97;;;26.25;54.15
38616;BME280;24370;51.986;4.666;2023-07-24T02:24:20;100352.47;;;26.67;53.01
38616;BME280;24370;51.986;4.666;2023-07-24T02:26:46;100356.03;;;25.36;58.64
38616;BME280;24370;51.986;4.666;2023-07-24T02:29:11;100351.16;;;25.30;58.02
38616;BME280;24370;51.986;4.666;2023-07-24T02:31:36;100348.13;;;26.12;55.03
38616;BME280;24370;51.986;4.666;2023-07-24T02:34:02;100354.94;;;25.27;58.79
38616;BME280;24370;51.986;4.666;2023-07-24T02:36:27;100364.53;;;26.07;54.66
38616;BME280;24370;51.986;4.666;2023-07-24T02:38:53;100363.31;;;26.44;53.63
38616;BME280;24370;51.986;4.666;2023-07-24T02:41:18;100348.13;;;25.34;57.39
38616;BME280;24370;51.986;4.666;2023-07-24T02:43:44;100340.25;;;25.33;56.44
38616;BME280;24370;51.986;4.666;2023-07-24T02:46:09;100339.97;;;25.13;57.24
38616;BME280;24370;51.986;4.666;2023-07-24T02:48:35;100339.44;;;24.74;58.05
38616;BME280;24370;51.986;4.666;2023-07-24T02:51:00;100341.44;;;25.17;56.40
38616;BME280;24370;51.986;4.666;2023-07-24T02:53:25;100334.63;;;25.59;56.03
38616;BME280;24370;51.986;4.666;2023-07-24T02:55:54;100335.00;;;26.30;52.73
38616;BME280;24370;51.986;4.666;2023-07-24T02:58:19;100345.25;;;25.81;53.88
38616;BME280;24370;51.986;4.666;2023-07-24T03:00:44;100341.44;;;25.17;55.29
38616;BME280;24370;51.986;4.666;2023-07-24T03:03:10;100339.91;;;25.81;53.47
38616;BME280;24370;51.986;4.666;2023-07-24T03:05:35;100331.69;;;24.82;56.35
38616;BME280;24370;51.986;4.666;2023-07-24T03:08:01;100328.56;;;25.22;54.28
38616;BME280;24370;51.986;4.666;2023-07-24T03:10:26;100364.91;;;25.48;55.04
38616;BME280;24370;51.986;4.666;2023-07-24T03:12:52;100348.72;;;24.93;57.97
38616;BME280;24370;51.986;4.666;2023-07-24T03:15:18;100345.44;;;25.46;54.95
38616;BME280;24370;51.986;4.666;2023-07-24T03:17:43;100338.81;;;25.84;53.76
38616;BME280;24370;51.986;4.666;2023-07-24T03:20:12;100348.13;;;25.57;54.50
38616;BME280;24370;51.986;4.666;2023-07-24T03:22:38;100344.78;;;24.74;58.27
38616;BME280;24370;51.986;4.666;2023-07-24T03:25:04;100350.13;;;24.74;57.31
38616;BME280;24370;51.986;4.666;2023-07-24T03:27:29;100342.38;;;25.28;56.51
38616;BME280;24370;51.986;4.666;2023-07-24T03:29:55;100341.16;;;24.75;57.60
38616;BME280;24370;51.986;4.666;2023-07-24T03:32:20;100348.72;;;25.15;56.60
38616;BME280;24370;51.986;4.666;2023-07-24T03:34:45;100341.13;;;25.77;55.12
38616;BME280;24370;51.986;4.666;2023-07-24T03:37:11;100342.91;;;25.10;56.65
38616;BME280;24370;51.986;4.666;2023-07-24T03:39:36;100338.94;;;25.82;54.11
38616;BME280;24370;51.986;4.666;2023-07-24T03:42:01;100334.38;;;25.16;57.21
38616;BME280;24370;51.986;4.666;2023-07-24T03:44:27;100326.63;;;25.02;57.81
38616;BME280;24370;51.986;4.666;2023-07-24T03:46:52;100332.38;;;25.75;54.68
38616;BME280;24370;51.986;4.666;2023-07-24T03:49:18;100324.56;;;24.59;58.53
38616;BME280;24370;51.986;4.666;2023-07-24T03:51:43;100320.16;;;25.94;53.08
38616;BME280;24370;51.986;4.666;2023-07-24T03:54:08;100317.59;;;25.60;53.87
38616;BME280;24370;51.986;4.666;2023-07-24T03:56:37;100311.19;;;25.83;54.02
38616;BME280;24370;51.986;4.666;2023-07-24T03:59:02;100308.34;;;26.50;51.80
38616;BME280;24370;51.986;4.666;2023-07-24T04:01:28;100313.88;;;25.83;53.20
38616;BME280;24370;51.986;4.666;2023-07-24T04:03:53;100317.50;;;26.47;51.90
38616;BME280;24370;51.986;4.666;2023-07-24T04:06:18;100320.78;;;25.31;55.57
38616;BME280;24370;51.986;4.666;2023-07-24T04:08:44;100325.75;;;26.02;52.85
38616;BME280;24370;51.986;4.666;2023-07-24T04:11:09;100329.53;;;25.44;53.82
38616;BME280;24370;51.986;4.666;2023-07-24T04:13:35;100326.94;;;25.54;54.42
38616;BME280;24370;51.986;4.666;2023-07-24T04:16:00;100325.06;;;25.88;53.12
38616;BME280;24370;51.986;4.666;2023-07-24T04:18:25;100327.47;;;25.91;53.68
38616;BME280;24370;51.986;4.666;2023-07-24T04:20:51;100332.44;;;25.18;55.32
38616;BME280;24370;51.986;4.666;2023-07-24T04:23:16;100329.09;;;26.15;52.92
38616;BME280;24370;51.986;4.666;2023-07-24T04:25:41;100328.06;;;25.40;55.09
38616;BME280;24370;51.986;4.666;2023-07-24T04:28:07;100332.97;;;26.22;52.13
38616;BME280;24370;51.986;4.666;2023-07-24T04:30:32;100327.06;;;25.64;53.60
38616;BME280;24370;51.986;4.666;2023-07-24T04:32:58;100343.06;;;25.86;52.23
38616;BME280;24370;51.986;4.666;2023-07-24T04:35:24;100342.00;;;26.21;51.66
38616;BME280;24370;51.986;4.666;2023-07-24T04:37:49;100331.47;;;25.97;51.45
38616;BME280;24370;51.986;4.666;2023-07-24T04:40:16;100336.66;;;25.66;52.24
38616;BME280;24370;51.986;4.666;2023-07-24T04:42:41;100329.84;;;26.59;49.56
38616;BME280;24370;51.986;4.666;2023-07-24T04:45:07;100328.06;;;25.29;52.18
38616;BME280;24370;51.986;4.666;2023-07-24T04:47:36;100337.22;;;26.25;49.62
38616;BME280;24370;51.986;4.666;2023-07-24T04:50:03;100338.59;;;26.19;48.74
38616;BME280;24370;51.986;4.666;2023-07-24T04:52:29;100336.63;;;26.64;47.82
38616;BME280;24370;51.986;4.666;2023-07-24T04:54:54;100339.25;;;25.22;50.47
38616;BME280;24370;51.986;4.666;2023-07-24T04:57:19;100334.22;;;26.61;47.64
38616;BME280;24370;51.986;4.666;2023-07-24T04:59:45;100341.69;;;25.60;49.07
38616;BME280;24370;51.986;4.666;2023-07-24T05:02:10;100342.91;;;25.33;50.55
38616;BME280;24370;51.986;4.666;2023-07-24T05:04:35;100338.44;;;25.77;48.68
38616;BME280;24370;51.986;4.666;2023-07-24T05:07:01;100329.84;;;26.17;47.79
38616;BME280;24370;51.986;4.666;2023-07-24T05:09:26;100332.69;;;25.49;48.17
38616;BME280;24370;51.986;4.666;2023-07-24T05:11:51;100331.56;;;26.07;47.77
38616;BME280;24370;51.986;4.666;2023-07-24T05:14:17;100326.59;;;24.90;50.59
38616;BME280;24370;51.986;4.666;2023-07-24T05:16:42;100327.94;;;25.30;49.46
38616;BME280;24370;51.986;4.666;2023-07-24T05:19:08;100329.91;;;24.59;51.12
38616;BME280;24370;51.986;4.666;2023-07-24T05:21:37;100329.66;;;25.43;49.16
38616;BME280;24370;51.986;4.666;2023-07-24T05:24:02;100330.47;;;24.75;50.51
38616;BME280;24370;51.986;4.666;2023-07-24T05:26:28;100326.59;;;25.91;47.89
38616;BME280;24370;51.986;4.666;2023-07-24T05:28:53;100322.13;;;25.91;47.43
38616;BME280;24370;51.986;4.666;2023-07-24T05:31:18;100324.72;;;26.14;47.11
38616;BME280;24370;51.986;4.666;2023-07-24T05:33:44;100326.81;;;25.67;47.68
38616;BME280;24370;51.986;4.666;2023-07-24T05:36:09;100323.97;;;26.23;47.43
38616;BME280;24370;51.986;4.666;2023-07-24T05:38:35;100323.53;;;26.07;47.12
38616;BME280;24370;51.986;4.666;2023-07-24T05:41:02;100326.25;;;25.40;48.53
38616;BME280;24370;51.986;4.666;2023-07-24T05:43:29;100327.94;;;25.30;48.34
38616;BME280;24370;51.986;4.666;2023-07-24T05:45:55;100326.34;;;25.62;48.11
38616;BME280;24370;51.986;4.666;2023-07-24T05:48:22;100330.31;;;25.67;48.08
38616;BME280;24370;51.986;4.666;2023-07-24T05:50:48;100333.03;;;26.11;47.31
38616;BME280;24370;51.986;4.666;2023-07-24T05:53:14;100340.22;;;25.55;48.50
38616;BME280;24370;51.986;4.666;2023-07-24T05:55:39;100335.97;;;25.08;49.90
38616;BME280;24370;51.986;4.666;2023-07-24T05:58:05;100335.44;;;26.14;47.15
38616;BME280;24370;51.986;4.666;2023-07-24T06:00:30;100339.97;;;25.59;47.19
38616;BME280;24370;51.986;4.666;2023-07-24T06:02:56;100341.81;;;25.47;47.79
38616;BME280;24370;51.986;4.666;2023-07-24T06:05:21;100346.09;;;26.79;45.05
38616;BME280;24370;51.986;4.666;2023-07-24T06:07:47;100336.09;;;25.17;48.31
38616;BME280;24370;51.986;4.666;2023-07-24T06:10:13;100345.78;;;24.73;49.30
38616;BME280;24370;51.986;4.666;2023-07-24T06:12:38;100343.00;;;24.86;49.15
38616;BME280;24370;51.986;4.666;2023-07-24T06:15:04;100356.28;;;25.44;48.28
38616;BME280;24370;51.986;4.666;2023-07-24T06:17:30;100364.03;;;25.02;49.07
38616;BME280;24370;51.986;4.666;2023-07-24T06:19:56;100360.03;;;25.42;48.23
38616;BME280;24370;51.986;4.666;2023-07-24T06:22:22;100353.84;;;25.30;48.21
38616;BME280;24370;51.986;4.666;2023-07-24T06:24:47;100361.16;;;25.94;47.87
38616;BME280;24370;51.986;4.666;2023-07-24T06:27:13;100356.25;;;25.99;47.26
38616;BME280;24370;51.986;4.666;2023-07-24T06:29:38;100354.38;;;26.76;45.39
38616;BME280;24370;51.986;4.666;2023-07-24T06:32:04;100354.22;;;26.03;47.67
38616;BME280;24370;51.986;4.666;2023-07-24T06:34:30;100354.56;;;26.42;46.71
38616;BME280;24370;51.986;4.666;2023-07-24T06:36:55;100350.91;;;25.67;48.24
38616;BME280;24370;51.986;4.666;2023-07-24T06:39:21;100360.75;;;26.42;46.77
38616;BME280;24370;51.986;4.666;2023-07-24T06:41:46;100351.84;;;27.97;44.70
38616;BME280;24370;51.986;4.666;2023-07-24T06:44:11;100355.97;;;27.40;43.73
38616;BME280;24370;51.986;4.666;2023-07-24T06:46:37;100360.38;;;27.51;44.53
38616;BME280;24370;51.986;4.666;2023-07-24T06:49:03;100355.03;;;27.20;44.25
38616;BME280;24370;51.986;4.666;2023-07-24T06:51:28;100360.28;;;29.00;41.74
38616;BME280;24370;51.986;4.666;2023-07-24T06:53:54;100363.97;;;27.31;44.01
38616;BME280;24370;51.986;4.666;2023-07-24T06:56:19;100358.97;;;27.47;44.50
38616;BME280;24370;51.986;4.666;2023-07-24T06:58:44;100362.91;;;27.12;45.19
38616;BME280;24370;51.986;4.666;2023-07-24T07:01:10;100361.44;;;27.70;44.21
38616;BME280;24370;51.986;4.666;2023-07-24T07:03:35;100363.47;;;27.16;45.06
38616;BME280;24370;51.986;4.666;2023-07-24T07:06:01;100357.81;;;28.30;42.47
38616;BME280;24370;51.986;4.666;2023-07-24T07:08:28;100360.81;;;29.69;40.00
38616;BME280;24370;51.986;4.666;2023-07-24T07:10:58;100361.03;;;30.21;39.10
38616;BME280;24370;51.986;4.666;2023-07-24T07:13:23;100357.13;;;29.70;39.60
38616;BME280;24370;51.986;4.666;2023-07-24T07:15:49;100363.59;;;29.21;40.38
38616;BME280;24370;51.986;4.666;2023-07-24T07:18:14;100355.03;;;30.27;38.49
38616;BME280;24370;51.986;4.666;2023-07-24T07:20:45;100356.41;;;30.50;38.21
38616;BME280;24370;51.986;4.666;2023-07-24T07:23:11;100352.31;;;29.08;40.43
38616;BME280;24370;51.986;4.666;2023-07-24T07:25:36;100356.09;;;27.89;42.67
38616;BME280;24370;51.986;4.666;2023-07-24T07:28:02;100356.09;;;28.38;42.27
38616;BME280;24370;51.986;4.666;2023-07-24T07:30:27;100349.34;;;28.44;41.90
38616;BME280;24370;51.986;4.666;2023-07-24T07:32:52;100338.69;;;29.75;39.62
38616;BME280;24370;51.986;4.666;2023-07-24T07:35:18;100339.72;;;28.51;41.71
38616;BME280;24370;51.986;4.666;2023-07-24T07:37:43;100333.25;;;29.29;41.64
38616;BME280;24370;51.986;4.666;2023-07-24T07:40:09;100334.00;;;27.56;45.10
38616;BME280;24370;51.986;4.666;2023-07-24T07:42:34;100337.66;;;28.92;42.62
38616;BME280;24370;51.986;4.666;2023-07-24T07:45:00;100336.91;;;28.33;43.42
38616;BME280;24370;51.986;4.666;2023-07-24T07:47:25;100334.38;;;28.32;43.54
38616;BME280;24370;51.986;4.666;2023-07-24T07:49:50;100345.94;;;28.32;43.53
38616;BME280;24370;51.986;4.666;2023-07-24T07:52:16;100341.97;;;28.46;43.69
38616;BME280;24370;51.986;4.666;2023-07-24T07:54:46;100341.47;;;27.63;45.73
38616;BME280;24370;51.986;4.666;2023-07-24T07:57:12;100341.78;;;29.24;43.17
38616;BME280;24370;51.986;4.666;2023-07-24T07:59:37;100340.16;;;28.27;43.45
38616;BME280;24370;51.986;4.666;2023-07-24T08:02:03;100350.69;;;27.70;44.92
38616;BME280;24370;51.986;4.666;2023-07-24T08:04:28;100353.69;;;28.45;42.92
38616;BME280;24370;51.986;4.666;2023-07-24T08:06:53;100342.66;;;27.70;45.87
38616;BME280;24370;51.986;4.666;2023-07-24T08:09:19;100351.47;;;28.21;44.37
38616;BME280;24370;51.986;4.666;2023-07-24T08:11:47;100351.97;;;26.73;47.63
38616;BME280;24370;51.986;4.666;2023-07-24T08:14:12;100347.47;;;25.65;48.77
38616;BME280;24370;51.986;4.666;2023-07-24T08:16:38;100349.81;;;25.58;49.97
38616;BME280;24370;51.986;4.666;2023-07-24T08:19:03;100338.84;;;27.01;46.65
38616;BME280;24370;51.986;4.666;2023-07-24T08:21:28;100344.13;;;27.43;45.86
38616;BME280;24370;51.986;4.666;2023-07-24T08:23:54;100347.56;;;26.72;47.39
38616;BME280;24370;51.986;4.666;2023-07-24T08:26:19;100339.06;;;27.59;44.46
38616;BME280;24370;51.986;4.666;2023-07-24T08:28:45;100337.47;;;28.27;43.85
38616;BME280;24370;51.986;4.666;2023-07-24T08:31:10;100343.09;;;29.48;41.52
38616;BME280;24370;51.986;4.666;2023-07-24T08:33:36;100345.91;;;26.59;47.17
38616;BME280;24370;51.986;4.666;2023-07-24T08:36:06;100349.19;;;27.36;45.09
38616;BME280;24370;51.986;4.666;2023-07-24T08:38:32;100346.22;;;28.39;43.88
38616;BME280;24370;51.986;4.666;2023-07-24T08:41:08;100352.94;;;30.39;40.58
38616;BME280;24370;51.986;4.666;2023-07-24T08:43:37;100340.56;;;30.73;39.85
38616;BME280;24370;51.986;4.666;2023-07-24T08:46:04;100328.72;;;31.77;36.53
38616;BME280;24370;51.986;4.666;2023-07-24T08:51:01;100336.34;;;28.20;42.13
38616;BME280;24370;51.986;4.666;2023-07-24T08:53:28;100337.59;;;29.68;39.82
38616;BME280;24370;51.986;4.666;2023-07-24T08:55:54;100340.00;;;28.29;42.84
38616;BME280;24370;51.986;4.666;2023-07-24T08:58:21;100331.63;;;27.92;43.10
38616;BME280;24370;51.986;4.666;2023-07-24T09:00:46;100328.59;;;28.93;41.34
38616;BME280;24370;51.986;4.666;2023-07-24T09:03:12;100332.34;;;27.95;43.14
38616;BME280;24370;51.986;4.666;2023-07-24T09:05:37;100321.22;;;27.39;43.72
38616;BME280;24370;51.986;4.666;2023-07-24T09:08:03;100317.09;;;27.95;42.56
38616;BME280;24370;51.986;4.666;2023-07-24T09:10:28;100326.81;;;27.76;42.51
38616;BME280;24370;51.986;4.666;2023-07-24T09:12:54;100317.13;;;29.75;39.75
38616;BME280;24370;51.986;4.666;2023-07-24T09:15:20;100317.44;;;29.72;39.34
38616;BME280;24370;51.986;4.666;2023-07-24T09:17:52;100306.44;;;30.63;37.91
38616;BME280;24370;51.986;4.666;2023-07-24T09:20:19;100309.91;;;31.51;36.14
38616;BME280;24370;51.986;4.666;2023-07-24T09:22:49;100313.44;;;29.76;39.57
38616;BME280;24370;51.986;4.666;2023-07-24T09:25:15;100306.84;;;28.77;40.69
38616;BME280;24370;51.986;4.666;2023-07-24T09:27:40;100304.63;;;28.43;41.44
38616;BME280;24370;51.986;4.666;2023-07-24T09:30:13;100297.13;;;29.04;41.05
38616;BME280;24370;51.986;4.666;2023-07-24T09:32:42;100299.38;;;28.71;41.44
38616;BME280;24370;51.986;4.666;2023-07-24T09:35:17;100301.75;;;30.21;39.36
38616;BME280;24370;51.986;4.666;2023-07-24T09:37:46;100294.09;;;31.13;36.85
38616;BME280;24370;51.986;4.666;2023-07-24T09:40:14;100308.22;;;30.28;38.40
38616;BME280;24370;51.986;4.666;2023-07-24T09:42:40;100304.06;;;31.21;36.35
38616;BME280;24370;51.986;4.666;2023-07-24T09:45:06;100312.75;;;29.74;38.60
38616;BME280;24370;51.986;4.666;2023-07-24T09:47:39;100308.16;;;30.02;37.23
38616;BME280;24370;51.986;4.666;2023-07-24T09:50:05;100307.00;;;30.05;37.99
38616;BME280;24370;51.986;4.666;2023-07-24T09:52:31;100312.72;;;28.04;41.68
38616;BME280;24370;51.986;4.666;2023-07-24T09:55:06;100313.44;;;29.30;40.16
38616;BME280;24370;51.986;4.666;2023-07-24T09:57:37;100310.78;;;29.48;39.37
38616;BME280;24370;51.986;4.666;2023-07-24T10:00:03;100303.09;;;28.98;40.69
38616;BME280;24370;51.986;4.666;2023-07-24T10:02:29;100307.56;;;30.35;38.39
38616;BME280;24370;51.986;4.666;2023-07-24T10:04:55;100306.50;;;30.27;38.49
38616;BME280;24370;51.986;4.666;2023-07-24T10:07:22;100297.13;;;29.59;39.01
38616;BME280;24370;51.986;4.666;2023-07-24T10:09:49;100299.28;;;30.10;38.51
38616;BME280;24370;51.986;4.666;2023-07-24T10:12:19;100297.47;;;30.55;37.56
38616;BME280;24370;51.986;4.666;2023-07-24T10:14:46;100307.53;;;29.26;38.49
38616;BME280;24370;51.986;4.666;2023-07-24T10:17:12;100315.88;;;28.86;40.16
38616;BME280;24370;51.986;4.666;2023-07-24T10:19:41;100311.38;;;27.18;43.71
38616;BME280;24370;51.986;4.666;2023-07-24T10:22:16;100299.44;;;28.12;42.42
38616;BME280;24370;51.986;4.666;2023-07-24T10:24:44;100299.59;;;28.01;42.38
38616;BME280;24370;51.986;4.666;2023-07-24T10:27:11;100289.81;;;28.86;41.32
38616;BME280;24370;51.986;4.666;2023-07-24T10:29:36;100293.16;;;30.00;39.56
38616;BME280;24370;51.986;4.666;2023-07-24T10:32:02;100302.38;;;29.23;39.10
38616;BME280;24370;51.986;4.666;2023-07-24T10:34:38;100291.53;;;31.04;37.55
38616;BME280;24370;51.986;4.666;2023-07-24T10:37:07;100295.84;;;32.07;34.82
38616;BME280;24370;51.986;4.666;2023-07-24T10:39:38;100291.75;;;31.61;36.11
38616;BME280;24370;51.986;4.666;2023-07-24T10:42:09;100286.34;;;32.52;33.90
38616;BME280;24370;51.986;4.666;2023-07-24T10:44:35;100298.78;;;29.60;37.51
38616;BME280;24370;51.986;4.666;2023-07-24T10:47:01;100295.13;;;31.88;35.11
38616;BME280;24370;51.986;4.666;2023-07-24T10:49:26;100279.50;;;32.97;34.25
38616;BME280;24370;51.986;4.666;2023-07-24T10:51:58;100289.75;;;29.98;36.62
38616;BME280;24370;51.986;4.666;2023-07-24T10:54:24;100290.41;;;31.74;34.81
38616;BME280;24370;51.986;4.666;2023-07-24T10:56:49;100290.53;;;31.13;35.31
38616;BME280;24370;51.986;4.666;2023-07-24T10:59:15;100295.44;;;31.09;35.92
38616;BME280;24370;51.986;4.666;2023-07-24T11:01:41;100305.38;;;29.76;37.93
38616;BME280;24370;51.986;4.666;2023-07-24T11:04:06;100301.91;;;30.02;37.47
38616;BME280;24370;51.986;4.666;2023-07-24T11:06:33;100304.56;;;29.66;38.09
38616;BME280;24370;51.986;4.666;2023-07-24T11:09:01;100303.25;;;30.42;37.45
38616;BME280;24370;51.986;4.666;2023-07-24T11:11:31;100304.81;;;28.32;41.31
38616;BME280;24370;51.986;4.666;2023-07-24T11:13:56;100307.16;;;29.85;38.83
38616;BME280;24370;51.986;4.666;2023-07-24T11:16:22;100298.81;;;30.33;38.44
38616;BME280;24370;51.986;4.666;2023-07-24T11:18:49;100305.84;;;30.25;39.11
38616;BME280;24370;51.986;4.666;2023-07-24T11:21:15;100306.19;;;30.49;39.28
38616;BME280;24370;51.986;4.666;2023-07-24T11:23:53;100307.94;;;29.95;38.94
38616;BME280;24370;51.986;4.666;2023-07-24T11:26:24;100310.78;;;29.48;38.95
38616;BME280;24370;51.986;4.666;2023-07-24T11:28:50;100307.63;;;29.99;39.02
38616;BME280;24370;51.986;4.666;2023-07-24T11:31:16;100307.09;;;28.93;40.68
38616;BME280;24370;51.986;4.666;2023-07-24T11:33:44;100307.75;;;28.96;41.31
38616;BME280;24370;51.986;4.666;2023-07-24T11:36:10;100313.97;;;28.49;41.03
38616;BME280;24370;51.986;4.666;2023-07-24T11:38:36;100322.41;;;29.49;38.72
38616;BME280;24370;51.986;4.666;2023-07-24T11:41:04;100317.63;;;28.67;40.11
38616;BME280;24370;51.986;4.666;2023-07-24T11:43:30;100321.53;;;29.20;39.83
38616;BME280;24370;51.986;4.666;2023-07-24T11:45:55;100318.28;;;29.17;39.96
38616;BME280;24370;51.986;4.666;2023-07-24T11:48:23;100321.75;;;28.32;41.66
38616;BME280;24370;51.986;4.666;2023-07-24T11:50:51;100331.94;;;28.48;42.00
38616;BME280;24370;51.986;4.666;2023-07-24T11:55:49;100330.00;;;28.11;41.90
38616;BME280;24370;51.986;4.666;2023-07-24T11:58:16;100326.44;;;28.01;42.72
38616;BME280;24370;51.986;4.666;2023-07-24T12:00:42;100337.47;;;28.17;42.29
38616;BME280;24370;51.986;4.666;2023-07-24T12:03:07;100330.25;;;28.18;42.03
38616;BME280;24370;51.986;4.666;2023-07-24T12:05:40;100330.91;;;27.71;42.71
38616;BME280;24370;51.986;4.666;2023-07-24T12:08:07;100329.56;;;28.06;42.46
38616;BME280;24370;51.986;4.666;2023-07-24T12:10:37;100327.72;;;28.93;41.38
38616;BME280;24370;51.986;4.666;2023-07-24T12:13:03;100329.53;;;28.65;40.74
38616;BME280;24370;51.986;4.666;2023-07-24T12:15:29;100330.91;;;29.44;40.12
38616;BME280;24370;51.986;4.666;2023-07-24T12:17:54;100330.84;;;30.36;37.67
38616;BME280;24370;51.986;4.666;2023-07-24T12:20:20;100321.91;;;30.53;37.87
38616;BME280;24370;51.986;4.666;2023-07-24T12:22:45;100320.66;;;29.57;38.31
38616;BME280;24370;51.986;4.666;2023-07-24T12:25:12;100321.38;;;29.22;40.16
38616;BME280;24370;51.986;4.666;2023-07-24T12:27:37;100324.53;;;29.45;39.41
38616;BME280;24370;51.986;4.666;2023-07-24T12:30:05;100327.50;;;28.76;40.58
38616;BME280;24370;51.986;4.666;2023-07-24T12:32:31;100330.34;;;27.77;42.68
38616;BME280;24370;51.986;4.666;2023-07-24T12:34:57;100321.47;;;28.65;42.00
38616;BME280;24370;51.986;4.666;2023-07-24T12:37:22;100330.84;;;29.54;40.51
38616;BME280;24370;51.986;4.666;2023-07-24T12:39:48;100331.06;;;30.42;39.22
38616;BME280;24370;51.986;4.666;2023-07-24T12:42:14;100334.53;;;29.35;40.03
38616;BME280;24370;51.986;4.666;2023-07-24T12:44:41;100323.78;;;28.87;40.74
38616;BME280;24370;51.986;4.666;2023-07-24T12:47:06;100323.00;;;30.69;38.84
38616;BME280;24370;51.986;4.666;2023-07-24T12:49:32;100325.03;;;31.27;37.31
38616;BME280;24370;51.986;4.666;2023-07-24T12:51:57;100315.72;;;30.43;38.28
38616;BME280;24370;51.986;4.666;2023-07-24T12:54:23;100318.50;;;30.51;38.49